createdAt,value
2023-02-14T00:01:31.524Z,40.95
2023-02-14T00:04:03.057Z,43.63
2023-02-14T00:06:36.849Z,44.67
2023-02-14T00:09:09.805Z,48.55
2023-02-14T00:11:45.506Z,45.40
2023-02-14T00:14:36.057Z,51.25
2023-02-14T00:17:07.640Z,51.40
2023-02-14T00:19:39.236Z,44.05
2023-02-14T00:22:10.652Z,46.65
2023-02-14T00:24:42.286Z,54.50
2023-02-14T00:27:13.771Z,44.00
2023-02-14T00:29:45.237Z,41.55
2023-02-14T00:32:16.634Z,49.08
2023-02-14T00:34:48.253Z,44.13
2023-02-14T00:37:19.606Z,48.02
2023-02-14T00:39:51.408Z,46.75
2023-02-14T00:42:22.786Z,36.68
2023-02-14T00:44:54.378Z,46.02
2023-02-14T00:47:26.055Z,45.85
2023-02-14T00:49:59.898Z,48.10
2023-02-14T00:52:32.282Z,55.95
2023-02-14T00:55:03.723Z,59.45
2023-02-14T00:57:35.265Z,54.23
2023-02-14T01:00:09.193Z,49.25
2023-02-14T01:02:40.761Z,52.73
2023-02-14T01:05:12.295Z,54.00
2023-02-14T01:07:43.678Z,47.30
2023-02-14T01:10:15.266Z,49.35
2023-02-14T01:12:46.943Z,49.70
2023-02-14T01:15:18.446Z,49.70
2023-02-14T01:17:49.918Z,50.23
2023-02-14T01:20:21.774Z,47.43
2023-02-14T01:22:53.813Z,41.30
2023-02-14T01:25:25.244Z,41.92
2023-02-14T01:27:56.597Z,42.33
2023-02-14T01:30:28.332Z,45.35
2023-02-14T01:33:00.183Z,45.63
2023-02-14T01:35:31.745Z,45.15
2023-02-14T01:38:03.297Z,41.33
2023-02-14T01:40:34.670Z,41.10
2023-02-14T01:43:06.701Z,42.62
2023-02-14T01:45:38.135Z,49.55
2023-02-14T01:48:11.179Z,46.00
2023-02-14T01:50:45.224Z,43.30
2023-02-14T01:53:19.812Z,39.33
2023-02-14T01:55:54.401Z,37.20
2023-02-14T01:58:28.568Z,40.45
2023-02-14T02:01:00.442Z,40.15
2023-02-14T02:03:36.001Z,37.65
2023-02-14T02:06:11.734Z,37.30
2023-02-14T02:08:46.250Z,36.55
2023-02-14T02:11:17.674Z,41.65
2023-02-14T02:13:49.230Z,36.55
2023-02-14T02:16:57.484Z,55.25
2023-02-14T02:23:29.770Z,60.83
2023-02-14T02:26:14.212Z,49.15
2023-02-14T02:32:14.895Z,50.60
2023-02-14T02:35:07.557Z,50.50
2023-02-14T02:37:43.291Z,48.98
2023-02-14T02:40:25.550Z,51.53
2023-02-14T02:43:01.474Z,50.30
2023-02-14T02:45:39.284Z,46.70
2023-02-14T02:48:13.761Z,57.55
2023-02-14T02:51:05.969Z,55.80
2023-02-14T02:53:40.792Z,61.60
2023-02-14T02:56:32.842Z,60.25
2023-02-14T02:59:07.153Z,66.50
2023-02-14T03:01:42.873Z,68.42
2023-02-14T03:04:32.860Z,69.70
2023-02-14T03:07:07.898Z,76.10
2023-02-14T03:09:57.790Z,64.50
2023-02-14T03:12:47.444Z,71.50
2023-02-14T03:15:24.466Z,70.78
2023-02-14T03:18:18.586Z,75.55
2023-02-14T03:20:54.203Z,67.30
2023-02-14T03:23:28.780Z,76.72
2023-02-14T03:26:05.807Z,77.22
2023-02-14T03:28:40.882Z,72.25
2023-02-14T03:31:16.390Z,75.90
2023-02-14T03:33:50.829Z,83.72
2023-02-14T03:36:25.301Z,74.42
2023-02-14T03:38:59.709Z,72.10
2023-02-14T03:41:34.919Z,67.70
2023-02-14T03:44:10.127Z,69.53
2023-02-14T03:46:44.815Z,75.97
2023-02-14T03:49:19.599Z,66.10
2023-02-14T03:51:54.319Z,65.57
2023-02-14T03:54:28.368Z,63.15
2023-02-14T03:57:02.924Z,76.82
2023-02-14T03:59:34.577Z,68.45
2023-02-14T04:02:08.776Z,73.95
2023-02-14T04:04:43.495Z,59.63
2023-02-14T04:07:16.759Z,64.12
2023-02-14T04:09:48.715Z,63.92
2023-02-14T04:12:36.764Z,70.87
2023-02-14T04:14:55.341Z,78.30
2023-02-14T04:17:44.402Z,71.00
2023-02-14T04:20:16.120Z,75.72
2023-02-14T04:22:47.785Z,86.10
2023-02-14T04:25:20.036Z,68.70
2023-02-14T04:27:51.748Z,77.60
2023-02-14T04:30:23.504Z,81.87
2023-02-14T04:32:55.020Z,67.87
2023-02-14T04:35:26.521Z,90.80
2023-02-14T04:37:59.112Z,64.45
2023-02-14T04:40:31.010Z,61.42
2023-02-14T04:43:04.159Z,62.15
2023-02-14T04:45:35.672Z,54.77
2023-02-14T04:48:07.134Z,65.87
2023-02-14T04:50:38.606Z,71.02
2023-02-14T04:53:10.060Z,69.17
2023-02-14T04:55:41.503Z,84.10
2023-02-14T04:58:12.968Z,71.70
2023-02-14T05:00:44.552Z,81.53
2023-02-14T05:03:16.048Z,92.40
2023-02-14T05:05:47.439Z,66.85
2023-02-14T05:08:18.979Z,67.85
2023-02-14T05:10:50.521Z,79.17
2023-02-14T05:13:22.149Z,76.82
2023-02-14T05:15:53.686Z,64.85
2023-02-14T05:18:25.560Z,106.45
2023-02-14T05:20:57.541Z,59.93
2023-02-14T05:23:29.312Z,63.95
2023-02-14T05:26:00.751Z,65.10
2023-02-14T05:28:32.363Z,60.90
2023-02-14T05:31:04.289Z,68.47
2023-02-14T05:33:36.519Z,58.80
2023-02-14T05:36:09.125Z,71.28
2023-02-14T05:38:40.694Z,68.17
2023-02-14T05:41:12.089Z,66.33
2023-02-14T05:43:43.544Z,66.35
2023-02-14T05:46:15.289Z,60.88
2023-02-14T05:48:46.744Z,61.15
2023-02-14T05:51:18.428Z,56.70
2023-02-14T05:53:49.809Z,71.10
2023-02-14T05:56:21.049Z,84.30
2023-02-14T05:58:52.589Z,63.08
2023-02-14T06:01:24.056Z,61.23
2023-02-14T06:03:55.442Z,70.62
2023-02-14T06:06:26.981Z,89.58
2023-02-14T06:08:58.357Z,76.82
2023-02-14T06:11:29.842Z,60.33
2023-02-14T06:14:01.467Z,78.80
2023-02-14T06:16:33.158Z,86.95
2023-02-14T06:19:04.704Z,90.97
2023-02-14T06:21:36.784Z,73.75
2023-02-14T06:24:08.422Z,91.80
2023-02-14T06:26:40.145Z,88.15
2023-02-14T06:29:11.636Z,73.28
2023-02-14T06:31:43.307Z,116.10
2023-02-14T06:34:16.126Z,85.42
2023-02-14T06:36:47.898Z,86.80
2023-02-14T06:39:19.775Z,112.37
2023-02-14T06:41:51.377Z,115.50
2023-02-14T06:44:23.190Z,125.92
2023-02-14T06:46:54.858Z,115.60
2023-02-14T06:49:27.860Z,71.20
2023-02-14T06:51:59.337Z,86.28
2023-02-14T06:54:30.816Z,67.15
2023-02-14T06:57:02.230Z,74.25
2023-02-14T06:59:33.844Z,78.75
2023-02-14T07:02:05.350Z,75.28
2023-02-14T07:04:36.798Z,65.83
2023-02-14T07:07:08.188Z,68.70
2023-02-14T07:09:39.968Z,130.87
2023-02-14T07:12:11.447Z,114.00
2023-02-14T07:14:42.942Z,116.42
2023-02-14T07:17:14.483Z,105.58
2023-02-14T07:19:45.932Z,115.75
2023-02-14T07:22:17.306Z,145.20
2023-02-14T07:24:48.992Z,96.47
2023-02-14T07:27:20.682Z,131.72
2023-02-14T07:29:52.178Z,86.00
2023-02-14T07:32:24.036Z,96.35
2023-02-14T07:34:55.563Z,61.60
2023-02-14T07:37:27.098Z,99.37
2023-02-14T07:39:58.916Z,61.15
2023-02-14T07:42:30.487Z,65.40
2023-02-14T07:45:12.601Z,85.07
2023-02-14T07:47:35.002Z,75.67
2023-02-14T07:50:08.043Z,73.47
2023-02-14T07:52:39.456Z,67.12
2023-02-14T07:55:12.123Z,68.70
2023-02-14T07:57:43.941Z,64.27
2023-02-14T08:00:16.667Z,79.12
2023-02-14T08:02:49.606Z,70.47
2023-02-14T08:05:21.254Z,55.38
2023-02-14T08:07:52.605Z,57.83
2023-02-14T08:10:24.156Z,54.20
2023-02-14T08:13:01.403Z,114.10
2023-02-14T08:15:52.498Z,67.62
2023-02-14T08:18:30.315Z,103.20
2023-02-14T08:21:21.660Z,68.95
2023-02-14T08:23:58.852Z,82.62
2023-02-14T08:26:31.575Z,65.78
2023-02-14T08:29:04.473Z,84.92
2023-02-14T08:31:37.566Z,76.22
2023-02-14T08:34:09.411Z,69.62
2023-02-14T08:36:41.158Z,58.55
2023-02-14T08:39:12.734Z,63.58
2023-02-14T08:41:44.296Z,56.70
2023-02-14T08:44:16.375Z,51.18
2023-02-14T08:46:47.980Z,58.00
2023-02-14T08:49:19.487Z,51.80
2023-02-14T08:51:51.086Z,45.30
2023-02-14T08:54:22.578Z,61.48
2023-02-14T08:56:54.382Z,51.75
2023-02-14T08:59:26.034Z,45.00
2023-02-14T09:01:57.496Z,44.20
2023-02-14T09:07:04.059Z,40.43
2023-02-14T09:09:38.789Z,38.80
2023-02-14T09:12:16.972Z,45.48
2023-02-14T09:14:45.484Z,46.53
2023-02-14T09:17:18.544Z,34.48
2023-02-14T09:19:52.052Z,42.40
2023-02-14T09:22:23.795Z,61.55
2023-02-14T09:24:55.182Z,47.70
2023-02-14T09:27:26.765Z,42.98
2023-02-14T09:30:04.880Z,48.35
2023-02-14T09:32:36.465Z,42.30
2023-02-14T09:35:09.631Z,45.50
2023-02-14T09:37:41.754Z,43.55
2023-02-14T09:40:17.118Z,46.63
2023-02-14T09:43:04.443Z,49.18
2023-02-14T09:45:36.587Z,38.38
2023-02-14T09:48:13.333Z,37.23
2023-02-14T09:50:48.088Z,31.37
2023-02-14T09:53:24.281Z,34.55
2023-02-14T09:56:00.520Z,36.90
2023-02-14T09:58:35.678Z,37.45
2023-02-14T10:01:13.057Z,34.38
2023-02-14T10:04:16.505Z,37.25
2023-02-14T10:06:54.553Z,53.25
2023-02-14T10:09:47.173Z,53.58
2023-02-14T10:12:23.098Z,37.17
2023-02-14T10:14:57.794Z,37.67
2023-02-14T10:17:34.565Z,36.98
2023-02-14T10:20:13.983Z,35.35
2023-02-14T10:22:49.670Z,38.73
2023-02-14T10:25:24.126Z,41.77
2023-02-14T10:27:58.963Z,38.48
2023-02-14T10:30:36.443Z,35.23
2023-02-14T10:33:13.022Z,34.05
2023-02-14T10:35:49.423Z,35.20
2023-02-14T10:38:31.565Z,37.67
2023-02-14T10:41:13.324Z,34.05
2023-02-14T10:43:49.188Z,31.95
2023-02-14T10:46:25.614Z,37.50
2023-02-14T10:49:00.449Z,32.73
2023-02-14T10:51:35.678Z,37.95
2023-02-14T10:54:17.898Z,33.13
2023-02-14T10:56:52.509Z,29.25
2023-02-14T10:59:27.161Z,35.35
2023-02-14T11:02:00.485Z,36.73
2023-02-14T11:04:33.642Z,31.75
2023-02-14T11:07:18.358Z,35.03
2023-02-14T11:09:49.942Z,33.48
2023-02-14T11:12:40.004Z,33.30
2023-02-14T11:15:16.861Z,37.80
2023-02-14T11:17:49.034Z,35.52
2023-02-14T11:20:28.029Z,32.25
2023-02-14T11:22:59.784Z,34.53
2023-02-14T11:25:36.722Z,34.03
2023-02-14T11:28:11.173Z,32.88
2023-02-14T11:30:45.572Z,34.80
2023-02-14T11:33:28.843Z,29.30
2023-02-14T11:36:01.074Z,35.65
2023-02-14T11:38:36.015Z,29.82
2023-02-14T11:41:10.760Z,37.50
2023-02-14T11:43:43.710Z,34.90
2023-02-14T11:46:27.561Z,30.10
2023-02-14T11:49:02.128Z,32.15
2023-02-14T11:51:36.878Z,45.30
2023-02-14T11:54:11.640Z,32.78
2023-02-14T11:56:55.327Z,29.87
2023-02-14T11:59:34.244Z,30.02
2023-02-14T12:02:14.411Z,35.15
2023-02-14T12:04:47.740Z,40.45
2023-02-14T12:07:22.657Z,30.45
2023-02-14T12:10:15.831Z,32.45
2023-02-14T12:13:00.697Z,30.55
2023-02-14T12:15:38.099Z,36.28
2023-02-14T12:18:28.511Z,33.23
2023-02-14T12:21:08.283Z,36.98
2023-02-14T12:23:43.684Z,29.72
2023-02-14T12:26:20.410Z,28.32
2023-02-14T12:28:56.277Z,41.20
2023-02-14T12:31:27.746Z,26.30
2023-02-14T12:33:59.830Z,31.00
2023-02-14T12:36:47.575Z,32.20
2023-02-14T12:39:41.321Z,32.93
2023-02-14T12:42:20.076Z,28.50
2023-02-14T12:47:45.276Z,31.37
2023-02-14T12:50:46.835Z,30.68
2023-02-14T12:56:39.293Z,32.08
2023-02-14T12:59:16.513Z,37.78
2023-02-14T13:02:03.513Z,34.43
2023-02-14T13:07:46.128Z,33.15
2023-02-14T13:10:22.411Z,36.45
2023-02-14T13:12:58.117Z,28.73
2023-02-14T13:15:34.387Z,33.15
2023-02-14T13:18:09.724Z,35.23
2023-02-14T13:20:52.169Z,37.95
2023-02-14T13:23:28.749Z,35.17
2023-02-14T13:26:03.878Z,36.88
2023-02-14T13:28:37.235Z,32.90
2023-02-14T13:31:08.904Z,31.20
2023-02-14T13:33:43.665Z,36.93
2023-02-14T13:36:15.657Z,36.70
2023-02-14T13:38:50.239Z,33.50
2023-02-14T13:41:23.604Z,33.95
2023-02-14T13:43:57.782Z,33.60
2023-02-14T13:46:48.850Z,37.40
2023-02-14T13:49:27.771Z,38.33
2023-02-14T13:52:03.559Z,35.30
2023-02-14T13:54:44.886Z,34.88
2023-02-14T13:57:33.703Z,40.75
2023-02-14T14:00:33.209Z,32.00
2023-02-14T14:03:05.417Z,38.65
2023-02-14T14:06:02.956Z,37.45
2023-02-14T14:08:46.457Z,34.30
2023-02-14T14:12:04.114Z,39.53
2023-02-14T14:14:39.532Z,36.70
2023-02-14T14:17:28.736Z,40.65
2023-02-14T14:20:00.977Z,34.45
2023-02-14T14:22:32.969Z,32.65
2023-02-14T14:25:08.337Z,37.53
2023-02-14T14:27:45.572Z,37.55
2023-02-14T14:30:22.165Z,43.52
2023-02-14T14:32:53.768Z,37.88
2023-02-14T14:35:26.623Z,41.53
2023-02-14T14:38:00.799Z,36.88
2023-02-14T14:40:34.737Z,38.85
2023-02-14T14:43:10.489Z,36.65
2023-02-14T14:45:42.356Z,34.63
2023-02-14T14:48:16.909Z,31.82
2023-02-14T14:50:50.779Z,36.13
2023-02-14T14:53:25.806Z,35.90
2023-02-14T14:55:59.000Z,38.67
2023-02-14T14:58:39.182Z,36.08
2023-02-14T15:01:14.179Z,32.60
2023-02-14T15:03:45.638Z,39.45
2023-02-14T15:06:20.660Z,38.95
2023-02-14T15:08:52.568Z,35.23
2023-02-14T15:11:44.370Z,35.52
2023-02-14T15:14:19.141Z,41.58
2023-02-14T15:16:54.835Z,36.68
2023-02-14T15:19:32.255Z,37.10
2023-02-14T15:22:05.687Z,36.00
2023-02-14T15:24:39.475Z,36.60
2023-02-14T15:27:15.606Z,33.58
2023-02-14T15:29:57.919Z,37.93
2023-02-14T15:32:32.079Z,39.63
2023-02-14T15:35:06.627Z,35.75
2023-02-14T15:37:39.792Z,38.45
2023-02-14T15:40:18.613Z,36.00
2023-02-14T15:42:50.833Z,33.95
2023-02-14T15:45:26.506Z,35.35
2023-02-14T15:47:59.820Z,37.95
2023-02-14T15:50:33.868Z,43.75
2023-02-14T15:53:08.049Z,32.93
2023-02-14T15:55:39.387Z,43.33
2023-02-14T15:58:14.657Z,49.93
2023-02-14T16:00:46.566Z,42.03
2023-02-14T16:03:20.787Z,40.48
2023-02-14T16:05:54.688Z,46.33
2023-02-14T16:08:30.615Z,41.85
2023-02-14T16:11:05.213Z,44.63
2023-02-14T16:13:39.215Z,38.13
2023-02-14T16:16:13.326Z,50.95
2023-02-14T16:18:47.618Z,42.98
2023-02-14T16:21:23.482Z,48.87
2023-02-14T16:24:13.990Z,47.17
2023-02-14T16:26:46.957Z,42.38
2023-02-14T16:29:21.051Z,44.58
2023-02-14T16:32:14.710Z,44.50
2023-02-14T16:34:29.899Z,41.15
2023-02-14T16:37:06.169Z,35.05
2023-02-14T16:39:39.599Z,41.10
2023-02-14T16:42:15.980Z,39.58
2023-02-14T16:44:48.172Z,42.70
2023-02-14T16:47:21.791Z,44.23
2023-02-14T16:49:54.199Z,40.48
2023-02-14T16:52:28.310Z,46.68
2023-02-14T16:55:00.322Z,46.77
2023-02-14T16:57:35.949Z,52.40
2023-02-14T17:00:10.171Z,53.13
2023-02-14T17:02:44.166Z,42.10
2023-02-14T17:05:15.611Z,42.35
2023-02-14T17:07:47.224Z,48.60
2023-02-14T17:10:21.328Z,41.00
2023-02-14T17:12:53.765Z,39.92
2023-02-14T17:15:26.705Z,42.17
2023-02-14T17:18:02.138Z,40.88
2023-02-14T17:20:34.379Z,40.52
2023-02-14T17:23:06.255Z,46.77
2023-02-14T17:25:39.297Z,44.83
2023-02-14T17:28:11.576Z,49.30
2023-02-14T17:30:43.413Z,47.17
2023-02-14T17:33:14.842Z,43.75
2023-02-14T17:35:46.414Z,46.13
2023-02-14T17:38:18.587Z,53.65
2023-02-14T17:40:50.138Z,44.53
2023-02-14T17:43:21.662Z,49.50
2023-02-14T17:45:53.221Z,46.25
2023-02-14T17:48:24.783Z,43.17
2023-02-14T17:50:56.168Z,43.90
2023-02-14T17:53:27.654Z,47.65
2023-02-14T17:55:59.118Z,53.50
2023-02-14T17:58:30.915Z,64.85
2023-02-14T18:01:06.956Z,50.15
2023-02-14T18:03:39.013Z,50.03
2023-02-14T18:06:11.863Z,43.00
2023-02-14T18:08:48.403Z,37.48
2023-02-14T18:11:22.253Z,36.77
2023-02-14T18:13:55.887Z,45.48
2023-02-14T18:16:27.793Z,55.70
2023-02-14T18:19:00.634Z,40.52
2023-02-14T18:21:35.830Z,45.35
2023-02-14T18:24:08.724Z,51.33
2023-02-14T18:26:41.778Z,46.63
2023-02-14T18:29:15.025Z,53.87
2023-02-14T18:31:47.316Z,41.20
2023-02-14T18:34:18.848Z,49.38
2023-02-14T18:36:50.398Z,51.55
2023-02-14T18:39:23.372Z,52.93
2023-02-14T18:41:56.437Z,44.70
2023-02-14T18:44:28.761Z,47.40
2023-02-14T18:47:03.749Z,48.15
2023-02-14T18:49:36.498Z,49.40
2023-02-14T18:52:07.926Z,48.95
2023-02-14T18:54:40.857Z,60.52
2023-02-14T18:57:12.224Z,51.98
2023-02-14T18:59:45.164Z,48.28
2023-02-14T19:02:18.667Z,54.05
2023-02-14T19:04:50.537Z,56.77
2023-02-14T19:07:24.363Z,51.60
2023-02-14T19:09:56.370Z,44.75
2023-02-14T19:12:32.168Z,53.42
2023-02-14T19:15:07.410Z,44.08
2023-02-14T19:17:48.716Z,41.90
2023-02-14T19:22:56.406Z,36.63
2023-02-14T19:25:31.804Z,47.33
2023-02-14T19:28:06.806Z,39.78
2023-02-14T19:30:41.844Z,39.10
2023-02-14T19:33:15.563Z,46.05
2023-02-14T19:35:57.467Z,41.28
2023-02-14T19:38:35.277Z,40.85
2023-02-14T19:41:16.507Z,42.40
2023-02-14T19:43:54.049Z,43.63
2023-02-14T19:46:28.273Z,46.58
2023-02-14T19:49:01.546Z,41.37
2023-02-14T19:51:39.665Z,47.17
2023-02-14T19:54:13.265Z,45.25
2023-02-14T19:56:57.470Z,38.95
2023-02-14T19:59:32.261Z,48.02
2023-02-14T20:02:04.218Z,45.60
2023-02-14T20:04:39.501Z,39.80
2023-02-14T20:07:19.255Z,42.25
2023-02-14T20:09:54.872Z,51.68
2023-02-14T20:12:29.146Z,49.23
2023-02-14T20:15:10.924Z,47.27
2023-02-14T20:17:55.402Z,37.45
2023-02-14T20:20:32.215Z,47.75
2023-02-14T20:23:18.632Z,52.45
2023-02-14T20:25:57.768Z,52.98
2023-02-14T20:28:52.982Z,48.73
2023-02-14T20:31:30.605Z,44.60
2023-02-14T20:34:20.782Z,49.27
2023-02-14T20:37:07.514Z,45.25
2023-02-14T20:39:44.125Z,53.92
2023-02-14T20:42:18.052Z,52.78
2023-02-14T20:44:50.254Z,54.75
2023-02-14T20:47:23.022Z,45.52
2023-02-14T20:49:54.817Z,51.25
2023-02-14T20:52:29.524Z,52.62
2023-02-14T20:55:03.361Z,49.88
2023-02-14T20:57:36.374Z,59.45
2023-02-14T21:00:12.328Z,54.85
2023-02-14T21:02:49.179Z,55.90
2023-02-14T21:05:21.559Z,60.95
2023-02-14T21:07:56.527Z,49.80
2023-02-14T21:10:29.093Z,60.15
2023-02-14T21:13:00.781Z,59.77
2023-02-14T21:15:32.812Z,62.17
2023-02-14T21:18:04.568Z,63.55
2023-02-14T21:20:36.668Z,47.75
2023-02-14T21:23:09.191Z,56.80
2023-02-14T21:25:41.142Z,52.60
2023-02-14T21:28:12.701Z,49.33
2023-02-14T21:30:46.532Z,44.23
2023-02-14T21:33:20.078Z,51.10
2023-02-14T21:35:51.696Z,56.68
2023-02-14T21:38:23.272Z,52.13
2023-02-14T21:41:04.762Z,67.97
2023-02-14T21:43:41.191Z,61.37
2023-02-14T21:46:14.814Z,58.13
2023-02-14T21:49:25.943Z,60.10
2023-02-14T21:51:57.505Z,64.53
2023-02-14T21:54:29.157Z,61.30
2023-02-14T21:57:00.639Z,66.12
2023-02-14T21:59:32.618Z,66.53
2023-02-14T22:02:04.861Z,57.60
2023-02-14T22:04:38.401Z,67.60
2023-02-14T22:07:09.850Z,64.22
2023-02-14T22:09:41.364Z,57.90
2023-02-14T22:12:12.754Z,60.52
2023-02-14T22:14:44.355Z,56.05
2023-02-14T22:17:15.949Z,52.30
2023-02-14T22:19:47.642Z,52.62
2023-02-14T22:22:19.041Z,49.85
2023-02-14T22:24:50.547Z,47.73
2023-02-14T22:27:22.247Z,49.23
2023-02-14T22:29:53.752Z,49.23
2023-02-14T22:32:25.234Z,42.17
2023-02-14T22:34:56.666Z,45.88
2023-02-14T22:37:28.145Z,48.05
2023-02-14T22:39:59.614Z,49.90
2023-02-14T22:42:32.334Z,45.65
2023-02-14T22:45:05.515Z,45.78
2023-02-14T22:47:36.970Z,61.02
2023-02-14T22:50:10.252Z,53.78
2023-02-14T22:52:41.625Z,58.28
2023-02-14T22:55:13.118Z,51.63
2023-02-14T22:57:44.604Z,65.30
2023-02-14T23:00:17.652Z,54.23
2023-02-14T23:02:49.228Z,43.73
2023-02-14T23:05:21.159Z,52.75
2023-02-14T23:07:52.624Z,50.88
2023-02-14T23:10:24.124Z,53.83
2023-02-14T23:13:13.174Z,56.00
2023-02-14T23:16:02.928Z,48.50
2023-02-14T23:18:52.573Z,37.57
2023-02-14T23:21:41.528Z,46.18
2023-02-14T23:24:13.372Z,48.45
2023-02-14T23:26:44.987Z,43.60
2023-02-14T23:29:16.534Z,52.60
2023-02-14T23:31:48.257Z,57.05
2023-02-14T23:34:20.194Z,46.33
2023-02-14T23:36:51.876Z,56.65
2023-02-14T23:39:23.347Z,43.85
2023-02-14T23:41:55.493Z,49.95
2023-02-14T23:44:28.302Z,45.70
2023-02-14T23:47:03.127Z,47.43
2023-02-14T23:49:36.712Z,50.95
2023-02-14T23:52:09.776Z,60.75
2023-02-14T23:54:41.758Z,56.80
2023-02-14T23:57:13.255Z,50.60
2023-02-14T23:59:44.730Z,51.05
